createdAt,value
2023-03-14T00:02:41.992Z,8.62
2023-03-14T00:06:46.050Z,8.72
2023-03-14T00:10:49.890Z,8.80
2023-03-14T00:14:53.563Z,8.82
2023-03-14T00:18:57.211Z,8.77
2023-03-14T00:23:00.913Z,8.74
2023-03-14T00:27:04.650Z,8.68
2023-03-14T00:31:08.189Z,8.60
2023-03-14T00:35:11.863Z,8.49
2023-03-14T00:39:15.672Z,8.37
2023-03-14T00:43:19.192Z,8.23
2023-03-14T00:47:22.721Z,8.09
2023-03-14T00:51:26.356Z,7.91
2023-03-14T00:55:29.929Z,7.79
2023-03-14T00:59:36.523Z,7.67
2023-03-14T01:03:40.133Z,7.58
2023-03-14T01:07:43.833Z,7.51
2023-03-14T01:11:50.267Z,7.44
2023-03-14T01:15:53.936Z,7.37
2023-03-14T01:19:57.624Z,7.31
2023-03-14T01:24:01.695Z,7.26
2023-03-14T01:28:05.394Z,7.24
2023-03-14T01:32:09.153Z,7.27
2023-03-14T01:36:12.838Z,7.26
2023-03-14T01:40:16.672Z,7.26
2023-03-14T01:44:20.322Z,7.27
2023-03-14T01:48:23.888Z,7.28
2023-03-14T01:52:26.302Z,7.28
2023-03-14T01:56:29.835Z,7.24
2023-03-14T02:00:33.517Z,7.27
2023-03-14T02:04:37.388Z,7.27
2023-03-14T02:08:41.017Z,7.26
2023-03-14T02:12:44.984Z,7.23
2023-03-14T02:16:48.854Z,7.20
2023-03-14T02:21:04.276Z,7.17
2023-03-14T02:25:14.034Z,7.17
2023-03-14T02:29:17.760Z,7.17
2023-03-14T02:33:21.307Z,7.16
2023-03-14T02:37:25.020Z,7.15
2023-03-14T02:41:28.707Z,7.16
2023-03-14T02:45:35.238Z,7.15
2023-03-14T02:49:38.844Z,7.12
2023-03-14T02:53:42.446Z,7.07
2023-03-14T02:57:46.227Z,7.04
2023-03-14T03:01:49.965Z,7.07
2023-03-14T03:05:53.665Z,7.04
2023-03-14T03:09:57.329Z,7.04
2023-03-14T03:14:01.009Z,7.02
2023-03-14T03:18:04.607Z,6.99
2023-03-14T03:22:08.298Z,6.98
2023-03-14T03:26:12.061Z,6.91
2023-03-14T03:30:15.667Z,6.88
2023-03-14T03:34:19.319Z,6.86
2023-03-14T03:38:22.994Z,6.81
2023-03-14T03:42:26.680Z,6.77
2023-03-14T03:46:30.368Z,6.74
2023-03-14T03:50:34.101Z,6.72
2023-03-14T03:54:37.696Z,6.69
2023-03-14T03:58:41.354Z,6.70
2023-03-14T04:02:45.197Z,6.68
2023-03-14T04:06:50.828Z,6.68
2023-03-14T04:10:54.482Z,6.66
2023-03-14T04:14:58.273Z,6.64
2023-03-14T04:19:01.923Z,6.59
2023-03-14T04:23:05.686Z,6.58
2023-03-14T04:27:09.407Z,6.63
2023-03-14T04:31:13.126Z,6.67
2023-03-14T04:35:16.764Z,6.68
2023-03-14T04:39:20.609Z,6.63
2023-03-14T04:43:27.336Z,6.61
2023-03-14T04:47:31.085Z,6.60
2023-03-14T04:51:34.675Z,6.59
2023-03-14T04:55:38.415Z,6.57
2023-03-14T04:59:42.072Z,6.59
2023-03-14T05:03:48.642Z,6.56
2023-03-14T05:07:58.478Z,6.56
2023-03-14T05:11:50.546Z,6.55
2023-03-14T05:15:57.129Z,6.57
2023-03-14T05:20:06.574Z,6.58
2023-03-14T05:24:07.768Z,6.60
2023-03-14T05:28:20.413Z,6.69
2023-03-14T05:32:39.646Z,6.91
2023-03-14T05:36:42.186Z,7.17
2023-03-14T05:40:52.100Z,7.27
2023-03-14T05:44:58.792Z,7.30
2023-03-14T05:49:02.652Z,7.36
2023-03-14T05:53:04.665Z,7.46
2023-03-14T05:57:08.326Z,7.63
2023-03-14T06:01:12.185Z,7.85
2023-03-14T06:05:19.114Z,8.12
2023-03-14T06:09:22.877Z,8.49
2023-03-14T06:13:26.499Z,8.81
2023-03-14T06:17:30.168Z,9.21
2023-03-14T06:21:39.524Z,9.61
2023-03-14T06:25:43.227Z,9.96
2023-03-14T06:29:46.809Z,10.08
2023-03-14T06:33:50.467Z,10.11
2023-03-14T06:37:36.819Z,10.18
2023-03-14T06:41:39.215Z,10.31
2023-03-14T06:45:42.943Z,10.35
2023-03-14T06:49:46.422Z,10.40
2023-03-14T06:53:50.035Z,10.47
2023-03-14T06:57:53.738Z,10.56
2023-03-14T07:02:03.219Z,10.77
2023-03-14T07:06:06.887Z,11.08
2023-03-14T07:10:10.524Z,11.29
2023-03-14T07:13:54.245Z,11.35
2023-03-14T07:17:57.984Z,11.34
2023-03-14T07:22:01.636Z,11.26
2023-03-14T07:26:05.297Z,11.13
2023-03-14T07:30:08.969Z,11.05
2023-03-14T07:34:12.607Z,11.01
2023-03-14T07:38:16.359Z,10.99
2023-03-14T07:42:19.952Z,10.96
2023-03-14T07:46:29.126Z,11.01
2023-03-14T07:50:33.581Z,11.07
2023-03-14T07:54:37.207Z,11.23
2023-03-14T07:58:40.898Z,11.55
2023-03-14T08:02:44.891Z,11.92
2023-03-14T08:06:48.571Z,12.40
2023-03-14T08:10:52.207Z,12.73
2023-03-14T08:14:55.852Z,12.99
2023-03-14T08:18:59.490Z,13.05
2023-03-14T08:23:03.120Z,13.05
2023-03-14T08:27:08.778Z,12.96
2023-03-14T08:31:13.582Z,12.85
2023-03-14T08:35:17.506Z,12.74
2023-03-14T08:39:21.275Z,12.66
2023-03-14T08:43:24.952Z,12.60
2023-03-14T08:47:28.571Z,12.58
2023-03-14T08:51:32.296Z,12.55
2023-03-14T08:55:35.999Z,12.53
2023-03-14T08:59:39.602Z,12.58
2023-03-14T09:03:43.343Z,12.69
2023-03-14T09:07:35.808Z,12.80
2023-03-14T09:11:39.528Z,12.81
2023-03-14T09:15:43.317Z,12.80
2023-03-14T09:19:46.941Z,12.78
2023-03-14T09:23:50.683Z,12.75
2023-03-14T09:27:54.460Z,12.73
2023-03-14T09:31:58.230Z,12.76
2023-03-14T09:36:01.361Z,12.83
2023-03-14T09:40:06.551Z,12.91
2023-03-14T09:44:10.692Z,13.15
2023-03-14T09:48:14.470Z,13.52
2023-03-14T09:52:18.258Z,13.73
2023-03-14T09:56:21.973Z,13.78
2023-03-14T10:00:28.804Z,13.81
2023-03-14T10:04:32.488Z,13.92
2023-03-14T10:08:35.862Z,13.98
2023-03-14T10:12:39.508Z,13.95
2023-03-14T10:16:43.501Z,13.97
2023-03-14T10:20:47.472Z,13.84
2023-03-14T10:24:51.230Z,13.83
2023-03-14T10:29:07.029Z,13.85
2023-03-14T10:33:10.668Z,13.83
2023-03-14T10:37:14.345Z,13.73
2023-03-14T10:41:17.978Z,13.56
2023-03-14T10:45:21.564Z,13.53
2023-03-14T10:49:25.282Z,13.59
2023-03-14T10:53:29.104Z,13.62
2023-03-14T10:57:38.554Z,13.60
2023-03-14T11:01:42.239Z,13.56
2023-03-14T11:05:34.068Z,13.49
2023-03-14T11:09:37.826Z,13.39
2023-03-14T11:13:41.756Z,13.28
2023-03-14T11:17:54.763Z,13.17
2023-03-14T11:21:58.317Z,13.01
2023-03-14T11:26:04.628Z,12.90
2023-03-14T11:30:08.339Z,12.76
2023-03-14T11:34:10.872Z,12.58
2023-03-14T11:38:14.528Z,12.38
2023-03-14T11:42:18.189Z,12.15
2023-03-14T11:46:21.935Z,11.95
2023-03-14T11:50:25.639Z,11.75
2023-03-14T11:54:29.353Z,11.58
2023-03-14T11:58:33.045Z,11.42
2023-03-14T12:02:36.699Z,11.24
2023-03-14T12:06:40.368Z,11.16
2023-03-14T12:10:44.116Z,11.15
2023-03-14T12:15:00.067Z,11.14
2023-03-14T12:19:09.881Z,11.10
2023-03-14T12:23:16.382Z,11.00
2023-03-14T12:27:26.159Z,10.87
2023-03-14T12:31:29.835Z,10.79
2023-03-14T12:35:33.486Z,10.71
2023-03-14T12:39:37.224Z,10.69
2023-03-14T12:43:40.886Z,10.70
2023-03-14T12:47:59.701Z,10.78
2023-03-14T12:52:09.064Z,10.87
2023-03-14T12:56:15.683Z,11.01
2023-03-14T13:00:25.544Z,11.11
2023-03-14T13:04:38.812Z,11.15
2023-03-14T13:08:43.598Z,11.08
2023-03-14T13:12:56.519Z,11.04
2023-03-14T13:17:10.414Z,11.01
2023-03-14T13:21:22.876Z,11.02
2023-03-14T13:25:26.667Z,11.01
2023-03-14T13:29:30.364Z,10.92
2023-03-14T13:33:35.432Z,10.84
2023-03-14T13:37:39.532Z,10.80
2023-03-14T13:41:42.922Z,10.74
2023-03-14T13:45:47.073Z,10.72
2023-03-14T13:49:51.272Z,10.72
2023-03-14T13:53:55.371Z,10.71
2023-03-14T13:57:59.180Z,10.67
2023-03-14T14:02:12.074Z,10.69
2023-03-14T14:06:15.912Z,10.63
2023-03-14T14:10:22.383Z,10.62
2023-03-14T14:14:26.125Z,10.62
2023-03-14T14:18:25.155Z,10.67
2023-03-14T14:22:23.975Z,10.73
2023-03-14T14:26:27.648Z,10.73
2023-03-14T14:30:37.265Z,10.72
2023-03-14T14:34:41.029Z,10.74
2023-03-14T14:38:44.875Z,10.76
2023-03-14T14:42:48.618Z,10.75
2023-03-14T14:46:52.476Z,10.71
2023-03-14T14:51:02.328Z,10.69
2023-03-14T14:55:17.984Z,10.65
2023-03-14T14:59:21.734Z,10.67
2023-03-14T15:03:28.559Z,10.62
2023-03-14T15:07:32.831Z,10.65
2023-03-14T15:11:36.614Z,10.66
2023-03-14T15:15:38.892Z,10.65
2023-03-14T15:19:42.508Z,10.64
2023-03-14T15:23:44.641Z,10.62
2023-03-14T15:27:48.293Z,10.59
2023-03-14T15:31:52.143Z,10.56
2023-03-14T15:35:55.994Z,10.51
2023-03-14T15:39:59.827Z,10.45
2023-03-14T15:44:03.546Z,10.47
2023-03-14T15:48:07.347Z,10.47
2023-03-14T15:52:11.105Z,10.45
2023-03-14T15:56:14.957Z,10.43
2023-03-14T16:05:01.075Z,10.37
2023-03-14T16:09:04.735Z,10.39
2023-03-14T16:13:08.389Z,10.41
2023-03-14T16:17:12.051Z,10.39
2023-03-14T16:21:15.788Z,10.36
2023-03-14T16:25:19.460Z,10.29
2023-03-14T16:29:23.322Z,10.27
2023-03-14T16:33:27.019Z,10.22
2023-03-14T16:37:30.696Z,10.16
2023-03-14T16:41:36.014Z,10.10
2023-03-14T16:45:39.628Z,10.05
2023-03-14T16:49:43.387Z,10.01
2023-03-14T16:53:47.278Z,9.98
2023-03-14T16:57:50.958Z,9.94
2023-03-14T17:01:54.737Z,9.89
2023-03-14T17:05:58.553Z,9.85
2023-03-14T17:10:02.227Z,9.76
2023-03-14T17:14:05.792Z,9.70
2023-03-14T17:18:09.511Z,9.67
2023-03-14T17:22:23.250Z,9.75
2023-03-14T17:26:27.830Z,9.71
2023-03-14T17:30:31.396Z,9.63
2023-03-14T17:34:35.575Z,9.52
2023-03-14T17:38:39.717Z,9.47
2023-03-14T17:42:43.568Z,9.36
2023-03-14T17:46:47.362Z,9.31
2023-03-14T17:50:52.944Z,9.29
2023-03-14T17:54:57.093Z,9.29
2023-03-14T17:59:00.964Z,9.35
2023-03-14T18:03:04.989Z,9.38
2023-03-14T18:07:09.153Z,9.37
2023-03-14T18:11:12.903Z,9.31
2023-03-14T18:15:17.025Z,9.27
2023-03-14T18:19:20.920Z,9.17
2023-03-14T18:23:24.982Z,9.10
2023-03-14T18:27:28.851Z,9.02
2023-03-14T18:31:32.960Z,8.95
2023-03-14T18:35:36.718Z,8.92
2023-03-14T18:39:40.708Z,8.86
2023-03-14T18:43:44.860Z,8.84
2023-03-14T18:47:48.664Z,8.76
2023-03-14T18:51:52.741Z,8.73
2023-03-14T18:55:56.523Z,8.70
2023-03-14T19:00:02.099Z,8.67
2023-03-14T19:04:05.894Z,8.65
2023-03-14T19:08:09.697Z,8.60
2023-03-14T19:12:13.346Z,8.54
2023-03-14T19:16:17.339Z,8.49
2023-03-14T19:20:20.998Z,8.50
2023-03-14T19:24:24.760Z,8.52
2023-03-14T19:28:28.569Z,8.50
2023-03-14T19:32:32.268Z,8.45
2023-03-14T19:36:36.817Z,8.42
2023-03-14T19:40:49.160Z,8.40
2023-03-14T19:44:53.019Z,8.39
2023-03-14T19:48:56.692Z,8.37
2023-03-14T19:53:01.439Z,8.39
2023-03-14T19:57:06.650Z,8.39
2023-03-14T20:01:10.312Z,8.37
2023-03-14T20:05:14.121Z,8.35
2023-03-14T20:09:12.305Z,8.33
2023-03-14T20:13:21.785Z,8.33
2023-03-14T20:17:28.073Z,8.36
2023-03-14T20:21:33.292Z,8.40
2023-03-14T20:25:36.936Z,8.40
2023-03-14T20:29:40.622Z,8.41
2023-03-14T20:33:44.769Z,8.42
2023-03-14T20:37:48.448Z,8.43
2023-03-14T20:41:52.183Z,8.44
2023-03-14T20:45:56.066Z,8.45
2023-03-14T20:49:59.906Z,8.53
2023-03-14T20:54:03.655Z,8.58
2023-03-14T20:58:07.614Z,8.62
2023-03-14T21:02:10.343Z,8.64
2023-03-14T21:06:13.960Z,8.65
2023-03-14T21:10:17.659Z,8.66
2023-03-14T21:14:21.305Z,8.65
2023-03-14T21:18:24.548Z,8.62
2023-03-14T21:22:28.170Z,8.63
2023-03-14T21:26:31.876Z,8.66
2023-03-14T21:30:35.547Z,8.69
2023-03-14T21:34:39.150Z,8.69
2023-03-14T21:38:42.837Z,8.70
2023-03-14T21:42:40.312Z,8.71
2023-03-14T21:46:43.945Z,8.70
2023-03-14T21:50:47.814Z,8.71
2023-03-14T21:54:51.517Z,8.74
2023-03-14T21:58:47.804Z,8.77
2023-03-14T22:03:11.034Z,8.77
2023-03-14T22:07:17.342Z,8.77
2023-03-14T22:11:24.898Z,8.78
2023-03-14T22:15:28.683Z,8.76
2023-03-14T22:19:32.375Z,8.75
2023-03-14T22:23:35.974Z,8.76
2023-03-14T22:27:39.524Z,8.77
2023-03-14T22:31:43.357Z,8.79
2023-03-14T22:35:46.804Z,8.83
2023-03-14T22:39:50.100Z,8.86
2023-03-14T22:43:48.358Z,8.91
2023-03-14T22:47:52.116Z,8.93
2023-03-14T22:51:55.635Z,8.90
2023-03-14T22:55:59.430Z,8.86
2023-03-14T23:00:03.912Z,8.80
2023-03-14T23:04:07.548Z,8.72
2023-03-14T23:08:11.272Z,8.65
2023-03-14T23:12:14.002Z,8.54
2023-03-14T23:16:18.710Z,8.19
2023-03-14T23:20:22.606Z,7.82
2023-03-14T23:24:26.356Z,7.38
2023-03-14T23:28:29.941Z,7.01
2023-03-14T23:32:33.590Z,6.63
2023-03-14T23:36:37.390Z,6.31
2023-03-14T23:40:41.370Z,5.97
2023-03-14T23:44:46.078Z,5.73
2023-03-14T23:48:49.830Z,5.46
2023-03-14T23:52:53.528Z,5.22
2023-03-14T23:56:57.213Z,5.11
